Time;durP1;ratioP1;P1;durP2;ratioP2;P2;SDS_P1;SDS_P2;PMS_P1;PMS_P2;Temp;Humidity;BMP_temperature;BMP_pressure;BME280_temperature;BME280_humidity;BME280_pressure;Samples;Min_cycle;Max_cycle;Signal;HPM_P1;HPM_P2
2023/10/19 00:01:11;;;;;;;3.72;2.08;;;19.60;63.30;;;;;;6307385;22;20011;-63
2023/10/19 00:03:37;;;;;;;3.85;2.13;;;19.60;63.30;;;;;;6278909;22;20034;-62
2023/10/19 00:06:02;;;;;;;3.45;2.10;;;19.60;63.20;;;;;;6307103;22;20443;-62
2023/10/19 00:08:36;;;;;;;3.17;1.90;;;19.60;63.90;;;;;;6306991;22;20454;-62
2023/10/19 00:11:08;;;;;;;3.80;2.10;;;19.60;63.30;;;;;;6306418;22;20026;-62
2023/10/19 00:13:37;;;;;;;4.65;1.75;;;19.60;63.30;;;;;;6307502;22;20017;-62
2023/10/19 00:16:12;;;;;;;3.60;1.70;;;19.60;63.30;;;;;;6307449;22;20030;-62
2023/10/19 00:18:42;;;;;;;2.80;1.70;;;19.60;63.30;;;;;;6279815;22;20015;-62
2023/10/19 00:23:47;;;;;;;3.67;2.10;;;19.60;63.30;;;;;;6306415;22;20023;-62
2023/10/19 00:26:19;;;;;;;3.70;2.00;;;19.60;63.30;;;;;;6278753;22;20089;-63
2023/10/19 00:28:46;;;;;;;4.28;2.10;;;19.50;63.30;;;;;;6279672;22;20081;-62
2023/10/19 00:31:13;;;;;;;3.50;1.80;;;19.50;63.30;;;;;;6305789;22;20016;-62
2023/10/19 00:33:39;;;;;;;3.38;1.80;;;19.50;63.20;;;;;;6307068;22;20012;-62
2023/10/19 00:36:08;;;;;;;3.85;2.13;;;19.50;63.30;;;;;;6306791;22;20046;-62
2023/10/19 00:43:36;;;;;;;3.40;2.13;;;19.50;63.30;;;;;;6306878;22;20015;-62
2023/10/19 00:46:09;;;;;;;3.38;2.10;;;19.50;63.30;;;;;;6278856;22;20084;-62
2023/10/19 00:48:35;;;;;;;3.22;1.98;;;19.50;63.30;;;;;;6307307;22;20046;-62
2023/10/19 00:51:09;;;;;;;3.83;2.15;;;19.50;63.30;;;;;;6307002;22;20458;-62
2023/10/19 00:53:39;;;;;;;3.50;2.17;;;19.50;63.30;;;;;;6257139;22;20090;-62
2023/10/19 00:56:08;;;;;;;2.80;2.00;;;19.50;63.30;;;;;;6280031;22;20347;-62
2023/10/19 00:58:36;;;;;;;5.43;2.25;;;19.50;63.30;;;;;;6279032;22;20418;-62
2023/10/19 01:01:05;;;;;;;2.60;1.73;;;19.50;63.30;;;;;;6279908;22;20026;-63
2023/10/19 01:03:35;;;;;;;4.53;2.40;;;19.50;63.30;;;;;;6280102;22;20094;-62
2023/10/19 01:06:05;;;;;;;4.00;2.17;;;19.50;63.30;;;;;;6305761;22;20069;-62
2023/10/19 01:08:41;;;;;;;4.25;2.22;;;19.40;63.30;;;;;;6306578;22;20094;-62
2023/10/19 01:11:11;;;;;;;4.15;2.30;;;19.40;63.30;;;;;;6306920;22;20073;-62
2023/10/19 01:13:51;;;;;;;2.92;1.80;;;19.40;63.30;;;;;;6306319;22;20027;-62
2023/10/19 01:16:23;;;;;;;3.45;2.10;;;19.40;63.30;;;;;;6306471;22;20015;-62
2023/10/19 01:18:54;;;;;;;3.78;2.15;;;19.40;63.20;;;;;;6306954;22;20015;-63
2023/10/19 01:21:24;;;;;;;3.78;1.92;;;19.40;63.30;;;;;;6305476;22;20056;-61
2023/10/19 01:23:50;;;;;;;3.97;2.38;;;19.40;63.30;;;;;;6307130;22;20021;-62
2023/10/19 01:26:21;;;;;;;4.93;2.28;;;19.40;63.30;;;;;;6306195;22;20090;-62
2023/10/19 01:28:47;;;;;;;3.08;1.85;;;19.40;63.30;;;;;;6306208;22;20015;-62
2023/10/19 01:33:57;;;;;;;4.63;2.20;;;19.40;63.30;;;;;;6306008;22;20023;-61
2023/10/19 01:38:49;;;;;;;3.60;2.08;;;19.40;63.30;;;;;;6307013;22;20019;-62
2023/10/19 01:41:18;;;;;;;5.75;2.13;;;19.40;63.30;;;;;;6305566;22;20346;-62
2023/10/19 01:43:44;;;;;;;4.97;2.30;;;19.30;63.30;;;;;;6306767;22;20019;-62
2023/10/19 01:46:13;;;;;;;7.30;2.20;;;19.40;63.30;;;;;;6306908;22;20061;-62
2023/10/19 01:48:43;;;;;;;3.55;1.90;;;19.30;63.20;;;;;;6307901;22;20018;-62
2023/10/19 01:51:10;;;;;;;3.13;2.08;;;19.30;63.30;;;;;;6308244;22;20019;-62
2023/10/19 01:53:36;;;;;;;3.00;2.22;;;19.30;63.30;;;;;;6308829;22;20015;-61
2023/10/19 01:56:09;;;;;;;4.10;2.17;;;19.30;63.20;;;;;;6307721;22;20038;-63
2023/10/19 01:58:36;;;;;;;2.90;1.88;;;19.30;63.20;;;;;;6308712;22;20015;-62
2023/10/19 02:01:07;;;;;;;3.95;2.30;;;19.30;63.30;;;;;;6307889;22;20027;-62
2023/10/19 02:03:33;;;;;;;4.57;2.38;;;19.30;63.30;;;;;;6307708;22;20011;-62
2023/10/19 02:05:59;;;;;;;3.00;1.92;;;19.30;63.30;;;;;;6307642;22;20025;-62
2023/10/19 02:08:27;;;;;;;3.85;2.20;;;19.30;63.30;;;;;;6308297;22;20018;-62
2023/10/19 02:10:53;;;;;;;3.83;2.13;;;19.30;63.30;;;;;;6279765;22;20026;-61
2023/10/19 02:13:21;;;;;;;3.67;2.10;;;19.30;63.30;;;;;;6307888;22;20015;-62
2023/10/19 02:15:47;;;;;;;;;;;19.30;63.30;;;;;;6308252;22;20023;-62
2023/10/19 02:18:12;;;;;;;4.07;2.08;;;19.20;63.40;;;;;;6280592;22;19917;-62
2023/10/19 02:20:40;;;;;;;3.25;2.03;;;19.30;63.40;;;;;;6308796;22;20023;-61
2023/10/19 02:23:07;;;;;;;2.92;1.98;;;19.20;63.40;;;;;;6279929;22;20076;-62
2023/10/19 02:25:36;;;;;;;3.92;2.20;;;19.20;63.40;;;;;;6308390;22;20102;-62
2023/10/19 02:28:09;;;;;;;3.50;2.00;;;19.20;63.40;;;;;;6308360;22;20044;-62
2023/10/19 02:30:34;;;;;;;3.10;2.00;;;19.20;63.40;;;;;;6279836;22;20019;-62
2023/10/19 02:33:01;;;;;;;3.80;2.20;;;19.20;63.40;;;;;;6308166;22;20019;-62
2023/10/19 02:35:27;;;;;;;4.60;2.28;;;19.20;64.00;;;;;;6308070;22;20011;-62
2023/10/19 02:37:54;;;;;;;3.80;2.20;;;19.20;63.40;;;;;;6307006;22;20022;-62
2023/10/19 02:40:19;;;;;;;3.38;2.05;;;19.20;63.40;;;;;;6307835;22;20019;-62
2023/10/19 02:42:47;;;;;;;3.35;1.92;;;19.20;63.40;;;;;;6307926;22;20011;-62
2023/10/19 02:45:15;;;;;;;3.50;2.20;;;19.30;63.60;;;;;;6307064;22;20034;-62
2023/10/19 02:47:42;;;;;;;3.58;2.20;;;19.30;63.60;;;;;;6308031;22;20022;-62
2023/10/19 02:50:12;;;;;;;3.60;2.00;;;19.20;63.50;;;;;;6307820;22;20030;-62
2023/10/19 02:52:37;;;;;;;3.50;2.20;;;19.30;63.50;;;;;;6307249;22;20019;-63
2023/10/19 02:55:04;;;;;;;4.60;2.00;;;19.30;63.50;;;;;;6308024;22;20026;-63
2023/10/19 02:57:31;;;;;;;3.00;2.20;;;19.30;63.50;;;;;;6307178;22;20015;-62
2023/10/19 02:59:58;;;;;;;2.83;2.00;;;19.30;63.50;;;;;;6306509;22;20404;-62
2023/10/19 03:02:25;;;;;;;3.17;1.88;;;19.30;63.60;;;;;;6307546;22;20047;-62
2023/10/19 03:04:53;;;;;;;3.08;1.90;;;19.30;63.50;;;;;;6307908;22;20019;-63
2023/10/19 03:07:18;;;;;;;2.92;2.05;;;19.30;63.60;;;;;;6306619;22;20015;-61
2023/10/19 03:09:53;;;;;;;4.18;1.80;;;19.30;63.60;;;;;;6307483;22;20026;-62
2023/10/19 03:12:19;;;;;;;2.67;1.80;;;19.30;63.60;;;;;;6306466;22;20023;-62
2023/10/19 03:14:49;;;;;;;3.70;2.22;;;19.40;63.60;;;;;;6307710;22;20023;-62
2023/10/19 03:17:15;;;;;;;3.55;1.65;;;19.40;63.60;;;;;;6279873;22;20019;-63
2023/10/19 03:19:42;;;;;;;3.13;1.88;;;19.40;63.70;;;;;;6306986;22;20027;-62
2023/10/19 03:22:08;;;;;;;5.70;2.30;;;19.40;63.60;;;;;;6307618;22;20017;-62
2023/10/19 03:24:43;;;;;;;2.45;1.48;;;19.40;63.60;;;;;;6307772;22;20019;-63
2023/10/19 03:27:16;;;;;;;3.08;1.77;;;19.40;63.60;;;;;;6279226;22;20019;-62
2023/10/19 03:29:46;;;;;;;2.95;1.80;;;19.40;63.60;;;;;;6307848;22;20439;-63
2023/10/19 03:32:12;;;;;;;2.95;1.90;;;19.40;63.60;;;;;;6307197;22;20019;-62
2023/10/19 03:34:38;;;;;;;3.03;1.90;;;19.40;63.60;;;;;;6306567;22;20149;-63
2023/10/19 03:37:09;;;;;;;2.67;1.88;;;19.50;63.70;;;;;;6307491;22;20436;-62
2023/10/19 03:39:37;;;;;;;2.72;1.55;;;19.50;63.60;;;;;;6307281;22;20466;-62
2023/10/19 03:42:06;;;;;;;3.17;1.92;;;19.50;63.60;;;;;;6306404;22;20023;-62
2023/10/19 03:47:19;;;;;;;2.63;1.70;;;19.50;63.60;;;;;;6278636;22;20019;-62
2023/10/19 03:49:46;;;;;;;2.03;1.55;;;19.50;63.60;;;;;;6307561;22;20076;-63
2023/10/19 03:54:43;;;;;;;2.55;1.65;;;19.60;63.60;;;;;;6306239;22;20026;-63
2023/10/19 03:57:19;;;;;;;3.30;1.92;;;19.60;63.60;;;;;;6279762;22;20026;-63
2023/10/19 03:59:46;;;;;;;2.53;1.90;;;19.60;63.60;;;;;;6307556;22;20021;-63
2023/10/19 04:02:21;;;;;;;3.50;1.85;;;19.60;63.70;;;;;;6303310;22;20043;-63
2023/10/19 04:04:55;;;;;;;3.22;1.70;;;19.70;63.60;;;;;;6278916;22;20015;-63
2023/10/19 04:07:21;;;;;;;3.05;1.70;;;19.60;63.60;;;;;;6306507;22;20042;-62
2023/10/19 04:10:04;;;;;;;2.72;1.80;;;19.70;63.60;;;;;;6305908;22;20390;-63
2023/10/19 04:12:35;;;;;;;2.50;1.60;;;19.70;63.60;;;;;;6279875;22;20050;-63
2023/10/19 04:15:11;;;;;;;3.35;1.67;;;19.70;63.60;;;;;;6307732;22;20086;-63
2023/10/19 04:17:38;;;;;;;3.10;1.92;;;19.70;63.60;;;;;;6306431;22;20019;-63
2023/10/19 04:22:42;;;;;;;2.50;1.67;;;19.70;63.60;;;;;;6306382;22;20027;-63
2023/10/19 04:25:08;;;;;;;2.63;1.67;;;19.80;63.70;;;;;;6306950;22;20308;-62
2023/10/19 04:27:36;;;;;;;2.90;1.80;;;19.80;63.70;;;;;;6306851;22;20461;-63
2023/10/19 04:30:02;;;;;;;2.80;1.80;;;19.80;63.70;;;;;;6306216;22;20019;-62
2023/10/19 04:32:28;;;;;;;2.22;1.50;;;19.80;63.70;;;;;;6306853;22;20024;-63
2023/10/19 04:34:54;;;;;;;1.80;1.48;;;19.80;63.70;;;;;;6306922;22;20066;-63
2023/10/19 04:37:19;;;;;;;2.47;1.70;;;19.80;63.60;;;;;;6278182;22;20027;-63
2023/10/19 04:39:45;;;;;;;3.13;1.77;;;19.80;63.70;;;;;;6306973;22;20015;-62
2023/10/19 04:42:12;;;;;;;2.97;1.65;;;19.80;63.70;;;;;;6279268;22;20011;-62
2023/10/19 04:44:37;;;;;;;3.33;1.60;;;19.80;63.70;;;;;;6306387;22;20026;-62
2023/10/19 04:47:03;;;;;;;1.95;1.40;;;19.80;63.70;;;;;;6306923;22;20018;-63
2023/10/19 04:49:28;;;;;;;2.35;1.50;;;19.90;63.80;;;;;;6306584;22;20015;-62
2023/10/19 04:51:54;;;;;;;2.53;1.58;;;19.90;63.80;;;;;;6306018;22;20011;-62
2023/10/19 04:54:19;;;;;;;2.30;1.40;;;19.90;63.70;;;;;;6279069;22;20329;-63
2023/10/19 04:56:45;;;;;;;2.38;1.50;;;19.90;63.80;;;;;;6307147;22;20019;-62
2023/10/19 04:59:10;;;;;;;2.67;1.70;;;19.90;63.70;;;;;;6278070;22;20022;-63
2023/10/19 05:01:37;;;;;;;2.30;1.50;;;19.90;63.80;;;;;;6279301;22;20029;-62
2023/10/19 05:04:02;;;;;;;2.97;1.55;;;19.90;63.80;;;;;;6279464;22;20027;-62
2023/10/19 05:06:28;;;;;;;2.03;1.38;;;19.90;63.80;;;;;;6305413;22;20015;-63
2023/10/19 05:08:54;;;;;;;2.40;1.48;;;20.00;63.80;;;;;;6307151;22;20019;-62
2023/10/19 05:11:19;;;;;;;2.40;1.52;;;19.90;63.80;;;;;;6306527;22;20098;-63
2023/10/19 05:13:45;;;;;;;2.25;1.52;;;19.90;63.80;;;;;;6278539;22;20015;-63
2023/10/19 05:16:10;;;;;;;1.48;1.15;;;19.90;63.80;;;;;;6279243;22;20023;-63
2023/10/19 05:18:36;;;;;;;2.45;1.35;;;20.00;63.80;;;;;;6306576;22;20022;-63
2023/10/19 05:21:01;;;;;;;2.97;1.60;;;20.00;63.80;;;;;;6307219;22;20019;-63
2023/10/19 05:23:30;;;;;;;2.00;1.40;;;19.90;63.80;;;;;;6281063;22;20200;-63
2023/10/19 05:26:04;;;;;;;2.05;1.35;;;20.00;63.90;;;;;;6280696;22;20026;-63
2023/10/19 05:28:30;;;;;;;2.25;1.27;;;20.00;63.90;;;;;;6281381;22;20015;-63
2023/10/19 05:30:55;;;;;;;2.50;1.40;;;20.00;63.90;;;;;;6309036;22;20496;-62
2023/10/19 05:33:23;;;;;;;1.80;1.40;;;20.00;63.90;;;;;;6307301;22;20015;-63
2023/10/19 05:35:49;;;;;;;2.60;1.50;;;20.00;63.80;;;;;;6281351;22;20019;-62
2023/10/19 05:38:15;;;;;;;2.50;1.15;;;20.00;63.80;;;;;;6280823;22;20011;-61
2023/10/19 05:40:42;;;;;;;2.47;1.33;;;20.00;63.80;;;;;;6280374;22;20011;-61
2023/10/19 05:43:08;;;;;;;2.67;1.40;;;20.00;63.80;;;;;;6308697;22;20034;-61
2023/10/19 05:45:36;;;;;;;2.60;1.40;;;20.00;63.90;;;;;;6308947;22;20462;-61
2023/10/19 05:48:03;;;;;;;1.80;1.13;;;20.00;63.90;;;;;;6307924;22;20089;-61
2023/10/19 05:50:29;;;;;;;2.60;1.30;;;20.00;63.90;;;;;;6308509;22;20015;-62
2023/10/19 05:52:55;;;;;;;2.22;1.52;;;20.00;63.90;;;;;;6308620;22;20470;-61
2023/10/19 05:55:21;;;;;;;2.42;1.30;;;20.00;63.90;;;;;;6306872;22;20023;-61
2023/10/19 05:57:47;;;;;;;3.25;1.30;;;20.00;63.90;;;;;;6308704;22;20517;-61
2023/10/19 06:00:13;;;;;;;1.63;1.15;;;20.00;63.90;;;;;;6308494;22;20020;-61
2023/10/19 06:02:51;;;;;;;2.03;1.27;;;20.00;63.90;;;;;;6307317;22;20042;-62
2023/10/19 06:05:17;;;;;;;2.92;1.25;;;20.10;63.90;;;;;;6308400;22;20015;-61
2023/10/19 06:07:44;;;;;;;1.98;1.17;;;20.00;63.90;;;;;;6308309;22;20023;-61
2023/10/19 06:10:20;;;;;;;2.28;1.20;;;20.10;63.90;;;;;;6306520;22;20336;-62
2023/10/19 06:12:47;;;;;;;2.05;1.10;;;20.10;64.00;;;;;;6308425;22;20072;-62
2023/10/19 06:15:13;;;;;;;1.60;1.17;;;20.00;63.90;;;;;;6307318;22;20019;-62
2023/10/19 06:17:39;;;;;;;3.15;1.20;;;20.10;64.00;;;;;;6308221;22;20034;-63
2023/10/19 06:20:08;;;;;;;2.75;1.40;;;20.10;64.00;;;;;;6280510;22;20015;-62
2023/10/19 06:22:35;;;;;;;1.95;0.93;;;20.10;64.20;;;;;;6279647;22;20458;-62
2023/10/19 06:25:04;;;;;;;1.95;1.10;;;20.10;64.20;;;;;;6308551;22;20034;-62
2023/10/19 06:27:31;;;;;;;2.08;1.20;;;20.10;64.30;;;;;;6308136;22;20015;-61
2023/10/19 06:29:56;;;;;;;2.67;1.15;;;20.10;64.30;;;;;;6307489;22;20019;-63
2023/10/19 06:32:22;;;;;;;1.70;1.10;;;20.10;64.40;;;;;;6280871;22;20023;-62
2023/10/19 06:34:48;;;;;;;2.22;1.17;;;20.10;64.50;;;;;;6307833;22;20448;-61
2023/10/19 06:37:13;;;;;;;2.08;1.10;;;20.20;64.60;;;;;;6306690;22;20023;-62
2023/10/19 06:39:41;;;;;;;2.08;1.05;;;20.20;64.70;;;;;;6280603;22;20019;-62
2023/10/19 06:42:13;;;;;;;1.88;1.17;;;20.10;64.60;;;;;;6280268;22;20098;-63
2023/10/19 06:44:41;;;;;;;1.17;0.90;;;20.20;64.70;;;;;;6279640;22;20082;-63
2023/10/19 06:47:07;;;;;;;;;;;20.20;64.70;;;;;;6280768;22;20022;-63
2023/10/19 06:49:34;;;;;;;2.20;1.25;;;20.20;64.90;;;;;;6308116;22;19954;-63
2023/10/19 06:51:59;;;;;;;2.25;1.00;;;20.20;64.80;;;;;;6307181;22;20015;-64
2023/10/19 06:54:27;;;;;;;4.00;1.10;;;20.20;64.90;;;;;;6280127;22;20017;-63
2023/10/19 06:56:53;;;;;;;3.38;1.30;;;20.20;64.90;;;;;;6307767;22;20027;-62
2023/10/19 06:59:18;;;;;;;3.65;1.23;;;20.20;65.00;;;;;;6306491;22;20023;-63
2023/10/19 07:01:44;;;;;;;1.38;1.00;;;20.20;65.10;;;;;;6303992;22;20023;-64
2023/10/19 07:04:09;;;;;;;2.60;1.00;;;20.30;65.20;;;;;;6278877;22;20038;-63
2023/10/19 07:06:35;;;;;;;3.15;0.95;;;20.30;65.20;;;;;;6307066;22;20380;-62
2023/10/19 07:09:03;;;;;;;2.63;1.15;;;20.30;65.20;;;;;;6279690;22;20097;-62
2023/10/19 07:11:29;;;;;;;1.30;1.00;;;20.30;65.30;;;;;;6305354;22;20502;-61
2023/10/19 07:13:54;;;;;;;3.30;1.10;;;20.30;65.30;;;;;;6279258;22;20019;-62
2023/10/19 07:16:22;;;;;;;3.33;1.15;;;20.30;65.30;;;;;;6306977;22;20050;-62
2023/10/19 07:18:47;;;;;;;1.20;0.80;;;20.30;65.30;;;;;;6306620;22;20317;-62
2023/10/19 07:21:13;;;;;;;1.90;1.05;;;20.30;65.40;;;;;;6306956;22;20431;-63
2023/10/19 07:23:40;;;;;;;1.60;0.82;;;20.30;65.40;;;;;;6279775;22;20050;-60
2023/10/19 07:26:06;;;;;;;1.30;0.80;;;20.30;65.30;;;;;;6305074;22;20023;-62
2023/10/19 07:28:32;;;;;;;2.97;0.95;;;20.30;65.30;;;;;;6307016;22;20019;-61
2023/10/19 07:30:59;;;;;;;1.50;1.00;;;20.30;65.10;;;;;;6307291;22;20050;-62
2023/10/19 07:33:26;;;;;;;2.60;1.02;;;20.30;65.00;;;;;;6306392;22;20099;-62
2023/10/19 07:35:55;;;;;;;4.53;1.48;;;20.30;64.90;;;;;;6307858;22;20470;-62
2023/10/19 07:38:24;;;;;;;1.90;0.95;;;20.30;64.80;;;;;;6279479;22;20015;-63
2023/10/19 07:40:52;;;;;;;2.13;1.10;;;20.30;64.70;;;;;;6306647;22;20026;-64
2023/10/19 07:43:19;;;;;;;4.40;1.10;;;20.30;64.60;;;;;;6279584;22;20438;-64
2023/10/19 07:45:46;;;;;;;6.07;1.30;;;20.20;64.50;;;;;;6306946;22;20027;-64
2023/10/19 07:48:13;;;;;;;1.95;1.10;;;20.30;64.70;;;;;;6305794;22;20089;-64
2023/10/19 07:50:42;;;;;;;1.55;1.00;;;20.20;65.30;;;;;;6307405;22;20023;-64
2023/10/19 07:53:09;;;;;;;2.42;1.27;;;20.20;64.70;;;;;;6307098;22;20061;-65
2023/10/19 07:55:34;;;;;;;2.10;1.00;;;20.20;64.80;;;;;;6306560;22;20015;-61
2023/10/19 07:58:00;;;;;;;1.75;0.90;;;20.20;64.80;;;;;;6307713;22;20037;-62
2023/10/19 08:00:26;;;;;;;2.10;1.00;;;20.20;64.70;;;;;;6278257;22;20015;-61
2023/10/19 08:02:53;;;;;;;2.00;1.00;;;20.20;64.70;;;;;;6306757;22;20056;-61
2023/10/19 08:05:19;;;;;;;2.07;1.00;;;20.20;64.70;;;;;;6306594;22;20023;-61
2023/10/19 08:07:46;;;;;;;2.97;1.30;;;20.20;64.70;;;;;;6306205;22;20019;-59
2023/10/19 08:10:13;;;;;;;3.83;1.35;;;20.20;64.70;;;;;;6306206;22;20015;-61
2023/10/19 08:12:41;;;;;;;5.15;1.23;;;20.20;64.70;;;;;;6306772;22;20019;-60
2023/10/19 08:15:13;;;;;;;2.05;1.17;;;20.30;64.80;;;;;;6306612;22;20039;-60
2023/10/19 08:17:39;;;;;;;2.45;1.10;;;20.30;64.80;;;;;;6307125;22;20440;-61
2023/10/19 08:20:09;;;;;;;4.60;1.30;;;20.20;64.80;;;;;;6279577;22;20436;-61
2023/10/19 08:22:39;;;;;;;3.58;1.08;;;20.20;64.90;;;;;;6278837;22;20015;-61
2023/10/19 08:25:11;;;;;;;3.25;1.05;;;20.20;64.90;;;;;;6307173;22;20018;-61
2023/10/19 08:27:39;;;;;;;3.45;1.00;;;20.20;65.00;;;;;;6307550;22;20015;-61
2023/10/19 08:30:06;;;;;;;;;;;20.20;65.00;;;;;;6306459;22;20022;-61
2023/10/19 08:32:32;;;;;;;2.60;1.00;;;20.20;65.10;;;;;;6306861;22;19985;-61
2023/10/19 08:34:58;;;;;;;2.72;0.85;;;20.20;65.10;;;;;;6307169;22;20020;-61
2023/10/19 08:37:25;;;;;;;2.95;1.23;;;20.20;65.10;;;;;;6278170;22;20045;-61
2023/10/19 08:39:51;;;;;;;4.05;0.80;;;20.20;65.10;;;;;;6307151;22;20024;-60
2023/10/19 08:42:16;;;;;;;1.90;0.90;;;20.20;65.20;;;;;;6306964;22;20018;-61
2023/10/19 08:44:42;;;;;;;3.08;1.00;;;20.20;65.20;;;;;;6306115;22;20406;-61
2023/10/19 08:47:08;;;;;;;3.67;0.93;;;20.20;65.30;;;;;;6253488;22;20019;-61
2023/10/19 08:49:33;;;;;;;1.92;0.65;;;20.20;65.30;;;;;;6307508;22;20023;-62
2023/10/19 08:51:59;;;;;;;2.38;0.98;;;20.20;65.30;;;;;;6278670;22;20030;-60
2023/10/19 08:54:25;;;;;;;5.25;0.90;;;20.20;65.40;;;;;;6253610;22;20019;-61
2023/10/19 08:56:51;;;;;;;2.15;0.88;;;20.20;65.50;;;;;;6254030;22;20030;-62
2023/10/19 08:59:17;;;;;;;3.13;0.90;;;20.20;65.40;;;;;;6280489;22;20023;-69
2023/10/19 09:01:45;;;;;;;2.13;0.98;;;20.20;65.50;;;;;;6280852;22;20041;-62
2023/10/19 09:04:11;;;;;;;3.83;1.20;;;20.20;65.50;;;;;;6307700;22;20098;-61
2023/10/19 09:06:44;;;;;;;3.70;1.08;;;20.20;65.50;;;;;;6281342;22;20043;-61
2023/10/19 09:09:16;;;;;;;3.08;1.00;;;20.20;65.50;;;;;;6308113;22;20023;-61
2023/10/19 09:11:43;;;;;;;3.33;0.95;;;20.10;65.40;;;;;;6307614;22;20343;-62
2023/10/19 09:14:08;;;;;;;2.90;1.10;;;20.10;65.50;;;;;;6308474;22;20106;-62
2023/10/19 09:16:36;;;;;;;2.95;1.20;;;20.10;65.50;;;;;;6281497;22;20043;-62
2023/10/19 09:19:02;;;;;;;2.42;1.20;;;20.10;65.50;;;;;;6280528;22;20015;-62
2023/10/19 09:21:28;;;;;;;3.15;1.40;;;20.10;65.50;;;;;;6280463;22;20148;-61
2023/10/19 09:23:55;;;;;;;2.33;1.23;;;20.10;65.50;;;;;;6281061;22;20434;-61
2023/10/19 09:26:21;;;;;;;6.07;1.70;;;20.10;65.50;;;;;;6307150;22;20435;-61
2023/10/19 09:28:48;;;;;;;2.42;1.27;;;20.10;65.50;;;;;;6281064;22;20550;-62
2023/10/19 09:31:13;;;;;;;3.72;1.48;;;20.10;65.50;;;;;;6308441;22;20033;-62
2023/10/19 09:33:41;;;;;;;4.65;1.70;;;20.10;65.40;;;;;;6280995;22;20034;-61
2023/10/19 09:36:12;;;;;;;4.35;1.77;;;20.00;65.30;;;;;;6307868;22;20015;-62
2023/10/19 09:38:48;;;;;;;2.75;1.42;;;20.00;65.20;;;;;;6282806;22;20019;-61
2023/10/19 09:41:15;;;;;;;4.28;1.90;;;20.10;65.30;;;;;;6306555;22;20321;-61
2023/10/19 09:43:45;;;;;;;4.53;1.95;;;20.00;65.20;;;;;;6280511;22;20463;-62
2023/10/19 09:46:12;;;;;;;3.85;1.80;;;20.00;65.10;;;;;;6307583;22;20030;-62
2023/10/19 09:48:42;;;;;;;3.80;1.52;;;20.00;65.10;;;;;;6308548;22;20031;-61
2023/10/19 09:51:08;;;;;;;4.50;1.80;;;20.00;65.10;;;;;;6280533;22;20016;-62
2023/10/19 09:53:34;;;;;;;4.97;1.80;;;20.00;65.10;;;;;;6307529;22;20015;-61
2023/10/19 09:56:00;;;;;;;2.92;1.60;;;20.00;65.10;;;;;;6255289;22;20060;-58
2023/10/19 09:58:31;;;;;;;5.88;2.60;;;20.00;65.10;;;;;;6254890;22;20050;-61
2023/10/19 10:00:59;;;;;;;5.95;2.30;;;20.00;65.20;;;;;;6229551;22;20019;-60
2023/10/19 10:03:42;;;;;;;;;;;19.90;65.20;;;;;;6308899;22;20015;-62
2023/10/19 10:06:08;;;;;;;3.83;2.13;;;19.90;65.40;;;;;;6308182;22;19922;-62
2023/10/19 10:08:35;;;;;;;5.40;2.33;;;20.00;65.60;;;;;;6279764;22;20038;-61
2023/10/19 10:11:13;;;;;;;4.95;2.20;;;20.00;65.80;;;;;;6281741;22;20019;-62
2023/10/19 10:13:40;;;;;;;7.05;2.63;;;20.00;66.00;;;;;;6308402;22;20030;-62
2023/10/19 10:16:06;;;;;;;5.35;1.70;;;20.00;65.90;;;;;;6280758;22;20007;-60
2023/10/19 10:18:32;;;;;;;8.82;2.63;;;20.00;65.90;;;;;;6254940;22;20393;-60
2023/10/19 10:21:15;;;;;;;6.65;2.33;;;20.00;65.80;;;;;;6280599;22;20015;-60
2023/10/19 10:23:54;;;;;;;5.68;2.30;;;20.00;65.80;;;;;;6280781;22;20015;-60
2023/10/19 10:26:24;;;;;;;5.05;2.30;;;20.00;66.40;;;;;;6281421;22;20094;-60
2023/10/19 10:29:14;;;;;;;6.35;2.20;;;20.00;65.90;;;;;;6280157;22;20019;-60
2023/10/19 10:31:44;;;;;;;5.75;2.45;;;20.00;66.00;;;;;;6280828;22;20137;-60
2023/10/19 10:34:10;;;;;;;4.97;2.25;;;20.00;65.90;;;;;;6308100;22;20016;-62
2023/10/19 10:37:05;;;;;;;5.80;2.58;;;20.00;65.90;;;;;;6279302;22;20019;-62
2023/10/19 10:39:31;;;;;;;6.38;2.55;;;20.00;66.10;;;;;;6276988;22;20061;-61
2023/10/19 10:42:03;;;;;;;6.88;2.05;;;20.00;66.10;;;;;;6278617;22;20436;-62
2023/10/19 10:44:38;;;;;;;6.97;2.80;;;20.00;66.20;;;;;;6278563;22;20019;-61
2023/10/19 10:47:08;;;;;;;5.03;2.40;;;20.00;66.30;;;;;;6279652;22;20023;-61
2023/10/19 10:49:35;;;;;;;6.22;2.30;;;20.00;66.40;;;;;;6277714;22;20015;-62
2023/10/19 10:52:01;;;;;;;5.60;2.35;;;20.00;66.40;;;;;;6279398;22;20078;-61
2023/10/19 10:54:26;;;;;;;6.20;2.10;;;20.00;66.40;;;;;;6307351;22;20019;-61
2023/10/19 10:56:52;;;;;;;4.18;2.35;;;20.00;66.40;;;;;;6279429;22;20019;-60
2023/10/19 10:59:17;;;;;;;4.57;2.58;;;20.00;66.50;;;;;;6307240;22;20107;-61
2023/10/19 11:01:43;;;;;;;4.97;2.28;;;20.00;66.50;;;;;;6280136;22;20019;-61
2023/10/19 11:04:10;;;;;;;4.68;2.42;;;20.00;66.50;;;;;;6306468;22;20105;-60
2023/10/19 11:06:53;;;;;;;7.80;2.33;;;20.00;66.60;;;;;;6307447;22;20478;-60
2023/10/19 11:09:18;;;;;;;5.65;2.22;;;20.00;66.70;;;;;;6279854;22;20066;-60
2023/10/19 11:11:45;;;;;;;4.50;2.58;;;20.00;66.70;;;;;;6279262;22;20355;-60
2023/10/19 11:14:11;;;;;;;5.70;2.30;;;20.00;66.70;;;;;;6279582;22;20086;-61
2023/10/19 11:16:39;;;;;;;5.88;2.25;;;20.00;66.70;;;;;;6279815;22;20481;-60
2023/10/19 11:19:04;;;;;;;4.28;2.00;;;20.00;66.80;;;;;;6306229;22;20080;-62
2023/10/19 11:21:30;;;;;;;6.35;2.20;;;20.00;66.80;;;;;;6279503;22;20454;-62
2023/10/19 11:23:56;;;;;;;5.95;2.20;;;20.00;66.80;;;;;;6307627;22;20081;-62
2023/10/19 11:26:24;;;;;;;5.82;2.00;;;20.00;66.80;;;;;;6278895;22;20019;-62
2023/10/19 11:29:04;;;;;;;5.18;2.70;;;20.00;66.80;;;;;;6279898;22;20095;-62
2023/10/19 11:31:37;;;;;;;5.45;2.30;;;20.00;66.90;;;;;;6278315;22;20019;-62
2023/10/19 11:34:03;;;;;;;4.60;2.30;;;20.00;66.80;;;;;;6306399;22;20022;-61
2023/10/19 11:36:29;;;;;;;6.97;2.40;;;20.00;66.70;;;;;;6307233;22;20415;-62
2023/10/19 11:38:54;;;;;;;5.55;2.83;;;20.10;66.70;;;;;;6306514;22;20114;-62
2023/10/19 11:41:20;;;;;;;6.75;2.70;;;20.10;66.60;;;;;;6307085;22;20149;-61
2023/10/19 11:43:46;;;;;;;4.95;2.53;;;20.10;66.60;;;;;;6280044;22;20018;-62
2023/10/19 11:46:12;;;;;;;7.75;2.50;;;20.10;66.60;;;;;;6305978;22;20331;-62
2023/10/19 11:48:39;;;;;;;4.47;2.20;;;20.10;66.50;;;;;;6280024;22;20035;-62
2023/10/19 11:51:05;;;;;;;5.20;2.03;;;20.10;66.40;;;;;;6307140;22;20386;-62
2023/10/19 11:53:36;;;;;;;5.47;2.75;;;20.20;66.50;;;;;;6278353;22;20015;-62
2023/10/19 11:56:09;;;;;;;4.57;2.30;;;20.20;66.40;;;;;;6280063;22;20065;-62
2023/10/19 11:58:35;;;;;;;6.43;2.40;;;20.20;66.40;;;;;;6307255;22;20027;-62
2023/10/19 12:01:01;;;;;;;5.35;2.25;;;20.20;66.30;;;;;;6278813;22;20370;-62
2023/10/19 12:03:28;;;;;;;7.03;2.40;;;20.20;66.40;;;;;;6279452;22;20030;-62
2023/10/19 12:05:54;;;;;;;5.10;2.42;;;20.20;66.30;;;;;;6279977;22;20054;-62
2023/10/19 12:08:19;;;;;;;4.10;2.40;;;20.30;66.30;;;;;;6278796;22;20015;-62
2023/10/19 12:10:45;;;;;;;6.22;2.78;;;20.20;66.30;;;;;;6279720;22;20022;-62
2023/10/19 12:13:10;;;;;;;3.60;1.95;;;20.30;66.30;;;;;;6279433;22;20026;-61
2023/10/19 12:15:36;;;;;;;4.93;2.15;;;20.30;66.30;;;;;;6306280;22;20027;-62
2023/10/19 12:18:02;;;;;;;4.80;2.33;;;20.30;66.20;;;;;;6307154;22;20038;-62
2023/10/19 12:20:30;;;;;;;4.50;2.50;;;20.30;66.20;;;;;;6279236;22;20086;-61
2023/10/19 12:22:56;;;;;;;;;;;20.30;66.20;;;;;;6279305;22;20073;-62
2023/10/19 12:25:28;;;;;;;6.30;2.50;;;20.30;66.20;;;;;;6279245;22;19915;-61
2023/10/19 12:27:54;;;;;;;5.45;2.38;;;20.30;66.20;;;;;;6306007;22;20107;-62
2023/10/19 12:30:21;;;;;;;4.75;2.03;;;20.30;66.20;;;;;;6306949;22;20424;-61
2023/10/19 12:32:49;;;;;;;5.07;2.35;;;20.30;66.20;;;;;;6306491;22;20072;-62
2023/10/19 12:35:15;;;;;;;4.70;2.40;;;20.30;66.20;;;;;;6306088;22;20023;-62
2023/10/19 12:37:46;;;;;;;5.93;2.35;;;20.40;66.20;;;;;;6279567;22;20022;-62
2023/10/19 12:40:27;;;;;;;4.82;2.15;;;20.40;66.20;;;;;;6279410;22;20011;-62
2023/10/19 12:42:54;;;;;;;4.18;2.25;;;20.40;66.20;;;;;;6278884;22;20019;-61
2023/10/19 12:45:23;;;;;;;4.43;2.10;;;20.40;66.10;;;;;;6306872;22;20011;-62
2023/10/19 12:47:49;;;;;;;5.85;2.50;;;20.40;66.10;;;;;;6279639;22;20015;-61
2023/10/19 12:50:15;;;;;;;3.30;1.90;;;20.40;66.10;;;;;;6278406;22;20042;-62
2023/10/19 12:52:41;;;;;;;3.85;2.35;;;20.50;66.20;;;;;;6279975;22;20023;-61
2023/10/19 12:55:08;;;;;;;4.85;2.20;;;20.50;66.20;;;;;;6279396;22;20011;-61
2023/10/19 12:57:34;;;;;;;3.37;1.80;;;20.50;66.10;;;;;;6278455;22;20097;-61
2023/10/19 13:00:23;;;;;;;4.68;2.20;;;20.50;66.10;;;;;;6307218;22;20321;-61
2023/10/19 13:02:49;;;;;;;4.25;2.13;;;20.50;66.10;;;;;;6278558;22;20050;-61
2023/10/19 13:05:18;;;;;;;4.30;2.33;;;20.50;66.10;;;;;;6306672;22;20083;-61
2023/10/19 13:07:46;;;;;;;4.60;2.30;;;20.50;66.10;;;;;;6306780;22;20047;-61
2023/10/19 13:10:12;;;;;;;4.82;2.17;;;20.50;66.10;;;;;;6278269;22;20047;-61
2023/10/19 13:12:38;;;;;;;4.25;2.10;;;20.50;66.10;;;;;;6306821;22;20019;-61